createdAt,value
2023-05-03T00:01:33.806Z,93.49
2023-05-03T00:04:01.718Z,93.67
2023-05-03T00:06:29.411Z,93.76
2023-05-03T00:08:56.705Z,93.91
2023-05-03T00:11:23.940Z,94.01
2023-05-03T00:13:51.295Z,94.09
2023-05-03T00:16:19.721Z,94.29
2023-05-03T00:18:49.088Z,94.33
2023-05-03T00:21:17.247Z,94.45
2023-05-03T00:23:44.209Z,94.59
2023-05-03T00:26:11.274Z,94.62
2023-05-03T00:28:39.678Z,94.69
2023-05-03T00:31:09.659Z,94.77
2023-05-03T00:33:38.011Z,94.85
2023-05-03T00:36:10.367Z,94.97
2023-05-03T00:38:38.209Z,94.97
2023-05-03T00:41:06.081Z,94.99
2023-05-03T00:43:33.476Z,95.10
2023-05-03T00:46:12.360Z,95.02
2023-05-03T00:48:44.885Z,95.14
2023-05-03T00:51:13.189Z,95.12
2023-05-03T00:53:41.437Z,95.08
2023-05-03T00:56:09.239Z,95.07
2023-05-03T00:58:40.384Z,95.11
2023-05-03T01:01:09.276Z,95.27
2023-05-03T01:03:41.562Z,95.32
2023-05-03T01:06:22.302Z,95.29
2023-05-03T01:09:02.321Z,95.40
2023-05-03T01:11:48.832Z,95.43
2023-05-03T01:14:27.189Z,95.58
2023-05-03T01:16:57.221Z,95.71
2023-05-03T01:20:08.788Z,95.80
2023-05-03T01:22:42.023Z,95.96
2023-05-03T01:31:49.211Z,96.60
2023-05-03T01:34:29.350Z,96.59
2023-05-03T01:36:59.211Z,96.70
2023-05-03T01:46:44.779Z,97.02
2023-05-03T01:49:12.359Z,97.15
2023-05-03T01:51:39.521Z,97.27
2023-05-03T01:54:07.023Z,97.38
2023-05-03T01:56:37.114Z,97.35
2023-05-03T01:59:04.500Z,97.40
2023-05-03T02:01:32.020Z,97.59
2023-05-03T02:03:59.396Z,97.67
2023-05-03T02:06:26.826Z,97.92
2023-05-03T02:08:55.038Z,98.07
2023-05-03T02:11:22.289Z,98.44
2023-05-03T02:13:50.843Z,98.68
2023-05-03T02:16:18.681Z,98.93
2023-05-03T02:18:46.314Z,99.18
2023-05-03T02:21:14.588Z,99.22
2023-05-03T02:23:41.755Z,99.31
2023-05-03T02:26:09.219Z,99.43
2023-05-03T02:28:36.898Z,99.60
2023-05-03T02:31:06.700Z,99.59
2023-05-03T02:33:34.588Z,99.58
2023-05-03T02:36:01.886Z,99.69
2023-05-03T02:38:29.227Z,99.84
2023-05-03T02:40:58.364Z,99.99
2023-05-03T02:43:25.905Z,99.95
2023-05-03T02:45:53.550Z,100.00
2023-05-03T02:48:21.404Z,100.00
2023-05-03T02:50:49.078Z,100.00
2023-05-03T02:53:16.830Z,100.00
2023-05-03T02:55:44.697Z,100.00
2023-05-03T02:58:12.486Z,100.00
2023-05-03T03:00:39.834Z,100.00
2023-05-03T03:03:07.663Z,99.74
2023-05-03T03:05:35.273Z,96.02
2023-05-03T03:08:03.785Z,91.60
2023-05-03T03:10:31.480Z,88.26
2023-05-03T03:12:59.244Z,86.42
2023-05-03T03:15:30.721Z,85.64
2023-05-03T03:17:58.497Z,85.46
2023-05-03T03:20:26.031Z,85.16
2023-05-03T03:22:53.477Z,85.57
2023-05-03T03:25:21.036Z,85.89
2023-05-03T03:27:48.092Z,86.51
2023-05-03T03:30:15.646Z,87.25
2023-05-03T03:32:49.797Z,87.96
2023-05-03T03:35:19.159Z,88.85
2023-05-03T03:37:46.185Z,89.61
2023-05-03T03:40:14.074Z,90.38
2023-05-03T03:42:41.503Z,91.00
2023-05-03T03:45:09.980Z,91.29
2023-05-03T03:47:38.207Z,91.42
2023-05-03T03:50:07.072Z,91.98
2023-05-03T03:52:35.981Z,92.34
2023-05-03T03:55:03.784Z,92.64
2023-05-03T03:57:32.060Z,92.70
2023-05-03T04:00:00.259Z,92.57
2023-05-03T04:02:28.237Z,92.64
2023-05-03T04:04:55.932Z,92.76
2023-05-03T04:07:23.093Z,92.82
2023-05-03T04:09:50.534Z,92.65
2023-05-03T04:12:18.689Z,92.15
2023-05-03T04:14:47.712Z,91.87
2023-05-03T04:17:15.127Z,91.39
2023-05-03T04:19:43.745Z,90.83
2023-05-03T04:22:11.797Z,90.26
2023-05-03T04:24:40.868Z,89.60
2023-05-03T04:27:09.086Z,88.64
2023-05-03T04:29:39.285Z,87.87
2023-05-03T04:32:08.067Z,87.20
2023-05-03T04:34:37.197Z,86.35
2023-05-03T04:37:05.306Z,85.25
2023-05-03T04:39:33.453Z,84.22
2023-05-03T04:42:02.672Z,83.09
2023-05-03T04:44:29.917Z,81.80
2023-05-03T04:46:58.134Z,80.48
2023-05-03T04:49:26.419Z,79.10
2023-05-03T04:51:55.185Z,77.66
2023-05-03T04:54:25.463Z,75.96
2023-05-03T04:56:54.235Z,74.39
2023-05-03T04:59:21.606Z,71.86
2023-05-03T05:01:49.836Z,70.25
2023-05-03T05:04:17.705Z,65.86
2023-05-03T05:06:48.892Z,64.62
2023-05-03T05:09:23.615Z,64.33
2023-05-03T05:11:53.944Z,62.01
2023-05-03T05:14:23.745Z,59.60
2023-05-03T05:16:51.275Z,57.50
2023-05-03T05:19:18.623Z,55.45
2023-05-03T05:21:46.485Z,50.07
2023-05-03T05:24:15.173Z,48.91
2023-05-03T05:26:43.700Z,47.13
2023-05-03T05:29:12.272Z,45.46
2023-05-03T05:31:40.208Z,42.92
2023-05-03T05:34:08.397Z,41.82
2023-05-03T05:36:36.267Z,41.53
2023-05-03T05:39:04.111Z,41.34
2023-05-03T05:41:31.980Z,40.50
2023-05-03T05:44:00.247Z,39.71
2023-05-03T05:46:28.794Z,37.75
2023-05-03T05:48:56.728Z,38.25
2023-05-03T05:51:24.208Z,38.79
2023-05-03T05:53:52.741Z,37.56
2023-05-03T05:56:20.623Z,36.69
2023-05-03T05:58:48.205Z,37.29
2023-05-03T06:01:16.860Z,37.39
2023-05-03T06:03:46.048Z,36.77
2023-05-03T06:06:15.587Z,36.79
2023-05-03T06:08:42.819Z,36.89
2023-05-03T06:11:15.127Z,36.34
2023-05-03T06:13:44.093Z,35.94
2023-05-03T06:16:13.833Z,35.48
2023-05-03T06:18:41.434Z,34.78
2023-05-03T06:21:10.192Z,34.54
2023-05-03T06:23:40.807Z,33.94
2023-05-03T06:26:09.141Z,34.20
2023-05-03T06:28:36.565Z,34.90
2023-05-03T06:31:04.390Z,35.66
2023-05-03T06:33:33.205Z,34.72
2023-05-03T06:36:01.158Z,33.70
2023-05-03T06:38:29.053Z,33.47
2023-05-03T06:40:56.857Z,34.37
2023-05-03T06:50:05.607Z,32.20
2023-05-03T06:52:35.375Z,31.82
2023-05-03T06:55:05.206Z,30.86
2023-05-03T06:57:33.201Z,29.33
2023-05-03T07:00:00.887Z,29.58
2023-05-03T07:02:29.273Z,30.35
2023-05-03T07:04:57.789Z,30.25
2023-05-03T07:07:24.861Z,30.31
2023-05-03T07:09:52.379Z,30.45
2023-05-03T07:12:20.148Z,30.43
2023-05-03T07:14:48.479Z,30.75
2023-05-03T07:17:18.980Z,30.04
2023-05-03T07:19:49.114Z,30.04
2023-05-03T07:22:16.371Z,29.29
2023-05-03T07:24:43.515Z,29.65
2023-05-03T07:27:10.430Z,29.29
2023-05-03T07:29:38.570Z,30.28
2023-05-03T07:32:06.170Z,29.42
2023-05-03T07:34:33.310Z,29.58
2023-05-03T07:37:00.410Z,29.74
2023-05-03T07:39:28.273Z,29.33
2023-05-03T07:41:55.384Z,29.35
2023-05-03T07:44:22.582Z,29.60
2023-05-03T07:46:49.834Z,29.73
2023-05-03T07:49:17.218Z,29.69
2023-05-03T07:51:44.467Z,29.61
2023-05-03T07:54:11.948Z,30.65
2023-05-03T07:56:38.982Z,30.30
2023-05-03T07:59:09.880Z,28.96
2023-05-03T08:01:38.173Z,29.04
2023-05-03T08:04:06.026Z,28.57
2023-05-03T08:06:35.691Z,28.19
2023-05-03T08:09:04.725Z,29.06
2023-05-03T08:11:32.989Z,28.63
2023-05-03T08:14:00.285Z,28.87
2023-05-03T08:16:27.773Z,27.93
2023-05-03T08:18:54.915Z,27.53
2023-05-03T08:21:24.924Z,26.77
2023-05-03T08:23:52.617Z,26.84
2023-05-03T08:26:19.533Z,26.43
2023-05-03T08:28:46.464Z,26.61
2023-05-03T08:31:13.532Z,27.50
2023-05-03T08:33:40.980Z,27.11
2023-05-03T08:36:08.202Z,26.44
2023-05-03T08:38:36.680Z,27.07
2023-05-03T08:41:08.746Z,26.64
2023-05-03T08:43:36.178Z,27.38
2023-05-03T08:46:03.429Z,27.74
2023-05-03T08:48:31.913Z,27.53
2023-05-03T08:50:58.811Z,27.43
2023-05-03T08:53:25.770Z,26.78
2023-05-03T08:55:52.636Z,25.76
2023-05-03T08:58:19.772Z,26.12
2023-05-03T09:00:46.955Z,26.75
2023-05-03T09:03:15.076Z,26.53
2023-05-03T09:05:44.485Z,26.87
2023-05-03T09:08:12.881Z,27.62
2023-05-03T09:10:41.933Z,28.20
2023-05-03T09:13:10.795Z,28.79
2023-05-03T09:15:38.012Z,28.64
2023-05-03T09:18:20.592Z,28.85
2023-05-03T09:20:52.639Z,28.90
2023-05-03T09:23:26.197Z,28.66
2023-05-03T09:25:53.443Z,29.95
2023-05-03T09:28:20.682Z,30.51
2023-05-03T09:30:48.726Z,30.27
2023-05-03T09:33:23.195Z,29.28
2023-05-03T09:36:16.357Z,27.83
2023-05-03T09:38:43.524Z,29.50
2023-05-03T09:41:10.911Z,28.13
2023-05-03T09:43:48.969Z,27.84
2023-05-03T09:46:16.241Z,28.20
2023-05-03T09:48:43.624Z,29.25
2023-05-03T09:51:11.609Z,29.70
2023-05-03T09:53:39.624Z,29.57
2023-05-03T09:56:13.731Z,29.78
2023-05-03T09:58:41.630Z,29.63
2023-05-03T10:01:09.512Z,29.41
2023-05-03T10:03:50.428Z,28.59
2023-05-03T10:06:29.530Z,28.95
2023-05-03T10:09:06.985Z,30.31
2023-05-03T10:11:38.854Z,30.15
2023-05-03T10:16:25.922Z,29.77
2023-05-03T10:19:21.385Z,29.76
2023-05-03T10:21:56.616Z,29.73
2023-05-03T10:24:23.393Z,29.10
2023-05-03T10:26:50.800Z,28.91
2023-05-03T10:29:36.895Z,29.82
2023-05-03T10:32:04.146Z,30.06
2023-05-03T10:34:32.425Z,29.90
2023-05-03T10:37:07.359Z,30.03
2023-05-03T10:39:34.211Z,30.22
2023-05-03T10:42:07.372Z,29.27
2023-05-03T10:44:50.516Z,29.55
2023-05-03T10:47:18.033Z,30.14
2023-05-03T10:49:45.532Z,30.02
2023-05-03T10:52:43.820Z,30.50
2023-05-03T10:55:14.247Z,30.70
2023-05-03T10:57:43.059Z,31.01
2023-05-03T11:00:17.697Z,30.39
2023-05-03T11:03:12.532Z,29.65
2023-05-03T11:05:39.578Z,29.94
2023-05-03T11:08:13.199Z,29.97
2023-05-03T11:10:41.505Z,29.91
2023-05-03T11:13:08.812Z,29.92
2023-05-03T11:15:35.846Z,30.28
2023-05-03T11:18:03.497Z,30.93
2023-05-03T11:20:30.454Z,30.36
2023-05-03T11:22:57.196Z,30.32
2023-05-03T11:25:24.646Z,30.92
2023-05-03T11:27:51.061Z,31.07
2023-05-03T11:30:17.560Z,29.93
2023-05-03T11:32:44.330Z,30.21
2023-05-03T11:35:12.453Z,30.01
2023-05-03T11:37:39.153Z,29.11
2023-05-03T11:40:16.287Z,29.37
2023-05-03T11:43:03.477Z,29.35
2023-05-03T11:45:51.078Z,29.74
2023-05-03T11:48:18.270Z,30.03
2023-05-03T11:50:55.246Z,28.99
2023-05-03T11:53:23.448Z,28.79
2023-05-03T11:55:53.159Z,28.55
2023-05-03T11:58:27.527Z,29.14
2023-05-03T12:00:56.334Z,29.35
2023-05-03T12:03:28.857Z,30.43
2023-05-03T12:05:57.356Z,30.42
2023-05-03T12:08:30.151Z,30.14
2023-05-03T12:11:10.694Z,29.83
2023-05-03T12:13:44.775Z,30.05
2023-05-03T12:16:15.429Z,29.87
2023-05-03T12:18:55.047Z,29.23
2023-05-03T12:23:55.714Z,29.78
2023-05-03T12:26:23.783Z,29.58
2023-05-03T12:28:50.439Z,29.81
2023-05-03T12:31:18.265Z,30.38
2023-05-03T12:34:02.756Z,30.10
2023-05-03T12:36:37.123Z,29.67
2023-05-03T12:39:08.691Z,29.97
2023-05-03T12:44:09.904Z,30.78
2023-05-03T12:46:37.974Z,30.10
2023-05-03T12:49:07.584Z,30.33
2023-05-03T12:51:36.460Z,30.02
2023-05-03T12:54:08.918Z,30.18
2023-05-03T12:56:40.323Z,30.47
2023-05-03T12:59:39.322Z,30.70
2023-05-03T13:04:55.924Z,29.85
2023-05-03T13:07:14.411Z,29.77
2023-05-03T13:12:14.094Z,30.32
2023-05-03T13:14:42.281Z,30.39
2023-05-03T13:17:09.640Z,30.95
2023-05-03T13:19:36.278Z,30.38
2023-05-03T13:22:03.335Z,29.84
2023-05-03T13:24:30.068Z,29.97
2023-05-03T13:26:56.397Z,30.39
2023-05-03T13:29:23.754Z,30.35
2023-05-03T13:31:51.004Z,30.22
2023-05-03T13:34:17.402Z,30.12
2023-05-03T13:36:43.901Z,30.47
2023-05-03T13:39:10.426Z,30.90
2023-05-03T13:41:39.913Z,30.92
2023-05-03T13:44:09.609Z,30.98
2023-05-03T13:46:39.808Z,31.16
2023-05-03T13:49:07.117Z,30.55
2023-05-03T13:51:33.947Z,31.13
2023-05-03T13:54:00.992Z,30.95
2023-05-03T13:56:27.737Z,30.82
2023-05-03T13:58:55.587Z,30.89
2023-05-03T14:01:24.447Z,31.09
2023-05-03T14:03:51.513Z,30.70
2023-05-03T14:06:19.412Z,30.79
2023-05-03T14:08:46.920Z,31.09
2023-05-03T14:11:17.168Z,30.75
2023-05-03T14:13:56.192Z,31.04
2023-05-03T14:16:39.109Z,30.96
2023-05-03T14:19:07.279Z,30.95
2023-05-03T14:21:34.301Z,31.26
2023-05-03T14:24:01.028Z,31.91
2023-05-03T14:26:28.688Z,32.19
2023-05-03T14:28:55.626Z,31.38
2023-05-03T14:31:22.337Z,31.62
2023-05-03T14:33:49.334Z,31.70
2023-05-03T14:36:16.117Z,31.37
2023-05-03T14:38:42.614Z,31.54
2023-05-03T14:41:09.618Z,31.40
2023-05-03T14:43:36.851Z,31.52
2023-05-03T14:46:03.788Z,31.71
2023-05-03T14:48:30.812Z,31.62
2023-05-03T14:50:57.346Z,31.84
2023-05-03T14:53:24.164Z,32.67
2023-05-03T14:55:50.793Z,32.46
2023-05-03T14:58:18.031Z,31.76
2023-05-03T15:00:44.604Z,32.09
2023-05-03T15:03:11.386Z,32.33
2023-05-03T15:05:47.884Z,31.91
2023-05-03T15:08:15.331Z,31.90
2023-05-03T15:10:43.679Z,32.24
2023-05-03T15:13:10.890Z,32.65
2023-05-03T15:15:38.879Z,32.33
2023-05-03T15:18:05.758Z,32.22
2023-05-03T15:20:32.651Z,32.73
2023-05-03T15:22:59.329Z,32.61
2023-05-03T15:25:26.616Z,32.63
2023-05-03T15:27:53.052Z,32.80
2023-05-03T15:30:20.088Z,33.20
2023-05-03T15:32:46.785Z,33.24
2023-05-03T15:35:13.818Z,33.43
2023-05-03T15:37:40.950Z,33.73
2023-05-03T15:40:09.116Z,33.89
2023-05-03T15:42:36.502Z,33.80
2023-05-03T15:45:04.831Z,33.43
2023-05-03T15:47:32.234Z,32.95
2023-05-03T15:49:58.545Z,32.65
2023-05-03T15:52:25.152Z,32.87
2023-05-03T15:54:52.319Z,32.36
2023-05-03T15:57:19.391Z,32.35
2023-05-03T15:59:46.711Z,32.28
2023-05-03T16:02:13.685Z,32.36
2023-05-03T16:04:40.241Z,32.35
2023-05-03T16:07:07.650Z,32.86
2023-05-03T16:09:35.583Z,33.27
2023-05-03T16:12:02.520Z,33.27
2023-05-03T16:14:29.085Z,33.54
2023-05-03T16:16:55.949Z,34.35
2023-05-03T16:19:22.545Z,34.55
2023-05-03T16:21:48.937Z,33.92
2023-05-03T16:24:15.413Z,33.88
2023-05-03T16:26:42.608Z,34.29
2023-05-03T16:29:09.699Z,34.63
2023-05-03T16:31:36.719Z,35.00
2023-05-03T16:34:04.492Z,35.09
2023-05-03T16:36:32.526Z,35.39
2023-05-03T16:38:59.283Z,35.55
2023-05-03T16:41:25.761Z,36.28
2023-05-03T16:43:52.128Z,35.96
2023-05-03T16:46:18.872Z,36.02
2023-05-03T16:48:45.510Z,36.35
2023-05-03T16:51:12.019Z,36.21
2023-05-03T16:53:38.459Z,36.41
2023-05-03T16:56:05.678Z,36.41
2023-05-03T16:58:34.318Z,36.95
2023-05-03T17:01:00.875Z,36.98
2023-05-03T17:03:27.718Z,37.67
2023-05-03T17:05:55.898Z,37.84
2023-05-03T17:08:24.155Z,37.95
2023-05-03T17:10:51.335Z,38.21
2023-05-03T17:13:19.115Z,38.56
2023-05-03T17:15:45.824Z,39.11
2023-05-03T17:18:13.345Z,40.02
2023-05-03T17:20:40.111Z,39.95
2023-05-03T17:23:07.123Z,39.69
2023-05-03T17:25:33.874Z,39.86
2023-05-03T17:28:00.644Z,39.91
2023-05-03T17:30:27.896Z,39.81
2023-05-03T17:32:55.000Z,39.89
2023-05-03T17:35:22.370Z,39.88
2023-05-03T17:37:49.055Z,39.80
2023-05-03T17:40:15.901Z,39.88
2023-05-03T17:42:43.065Z,39.77
2023-05-03T17:45:10.778Z,40.00
2023-05-03T17:47:38.207Z,39.98
2023-05-03T17:50:05.876Z,39.99
2023-05-03T17:52:33.531Z,40.29
2023-05-03T17:55:00.702Z,40.29
2023-05-03T17:57:27.726Z,40.30
2023-05-03T17:59:54.806Z,40.38
2023-05-03T18:02:21.735Z,40.41
2023-05-03T18:04:48.562Z,40.60
2023-05-03T18:07:15.829Z,40.92
2023-05-03T18:09:42.094Z,40.82
2023-05-03T18:12:08.712Z,40.85
2023-05-03T18:14:36.114Z,40.83
2023-05-03T18:17:02.979Z,41.05
2023-05-03T18:19:29.833Z,41.13
2023-05-03T18:21:57.474Z,41.33
2023-05-03T18:24:24.348Z,41.67
2023-05-03T18:26:51.465Z,41.92
2023-05-03T18:29:18.179Z,41.87
2023-05-03T18:31:45.257Z,41.79
2023-05-03T18:34:12.223Z,41.94
2023-05-03T18:36:39.220Z,42.02
2023-05-03T18:39:05.617Z,42.14
2023-05-03T18:41:33.325Z,42.19
2023-05-03T18:44:00.162Z,42.18
2023-05-03T18:46:27.365Z,42.42
2023-05-03T18:48:53.927Z,42.41
2023-05-03T18:51:20.821Z,42.58
2023-05-03T18:53:47.401Z,42.85
2023-05-03T18:56:13.802Z,42.98
2023-05-03T18:58:40.033Z,42.95
2023-05-03T19:01:07.117Z,43.15
2023-05-03T19:03:33.877Z,43.40
2023-05-03T19:06:07.036Z,43.51
2023-05-03T19:08:34.901Z,43.48
2023-05-03T19:11:08.532Z,43.70
2023-05-03T19:13:35.425Z,43.91
2023-05-03T19:16:03.163Z,44.04
2023-05-03T19:18:31.740Z,44.26
2023-05-03T19:20:58.974Z,44.49
2023-05-03T19:23:25.623Z,44.38
2023-05-03T19:25:53.767Z,44.65
2023-05-03T19:28:23.087Z,44.63
2023-05-03T19:30:51.846Z,44.63
2023-05-03T19:33:19.715Z,44.82
2023-05-03T19:35:46.383Z,44.88
2023-05-03T19:38:13.896Z,45.20
2023-05-03T19:40:40.894Z,45.43
2023-05-03T19:43:07.600Z,45.55
2023-05-03T19:45:34.165Z,45.66
2023-05-03T19:48:01.153Z,45.94
2023-05-03T19:50:27.729Z,46.19
2023-05-03T19:52:54.333Z,46.62
2023-05-03T19:55:20.807Z,46.79
2023-05-03T19:57:47.286Z,47.12
2023-05-03T20:00:15.259Z,47.25
2023-05-03T20:02:41.913Z,47.36
2023-05-03T20:05:08.281Z,47.62
2023-05-03T20:07:34.839Z,47.92
2023-05-03T20:10:01.924Z,48.11
2023-05-03T20:12:28.930Z,48.41
2023-05-03T20:14:56.068Z,48.93
2023-05-03T20:17:22.414Z,49.17
2023-05-03T20:19:49.334Z,49.44
2023-05-03T20:22:16.645Z,49.57
2023-05-03T20:24:43.230Z,49.95
2023-05-03T20:27:09.564Z,50.69
2023-05-03T20:29:36.021Z,51.20
2023-05-03T20:32:02.664Z,51.40
2023-05-03T20:34:30.147Z,51.75
2023-05-03T20:36:58.932Z,51.83
2023-05-03T20:39:27.719Z,51.87
2023-05-03T20:41:55.275Z,52.13
2023-05-03T20:44:21.478Z,51.95
2023-05-03T20:46:48.094Z,51.91
2023-05-03T20:49:15.785Z,51.75
2023-05-03T20:51:42.236Z,51.47
2023-05-03T20:54:08.828Z,51.21
2023-05-03T20:56:35.398Z,50.98
2023-05-03T20:59:02.964Z,50.69
2023-05-03T21:01:29.468Z,50.59
2023-05-03T21:03:56.436Z,50.57
2023-05-03T21:06:23.539Z,50.85
2023-05-03T21:08:50.294Z,50.87
2023-05-03T21:11:16.616Z,50.98
2023-05-03T21:13:43.018Z,51.06
2023-05-03T21:16:09.726Z,51.10
2023-05-03T21:18:36.057Z,51.10
2023-05-03T21:21:03.539Z,51.11
2023-05-03T21:23:32.934Z,51.29
2023-05-03T21:25:59.786Z,51.27
2023-05-03T21:28:26.895Z,51.14
2023-05-03T21:30:54.248Z,51.28
2023-05-03T21:33:20.853Z,51.29
2023-05-03T21:35:47.083Z,51.36
2023-05-03T21:38:14.749Z,51.60
2023-05-03T21:40:40.982Z,51.93
2023-05-03T21:43:09.155Z,51.95
2023-05-03T21:45:35.538Z,52.17
2023-05-03T21:48:01.952Z,52.12
2023-05-03T21:50:28.776Z,52.19
2023-05-03T21:52:55.138Z,52.21
2023-05-03T21:55:21.383Z,52.56
2023-05-03T21:57:49.209Z,52.43
2023-05-03T22:00:20.161Z,52.51
2023-05-03T22:02:47.643Z,52.48
2023-05-03T22:05:13.913Z,52.54
2023-05-03T22:07:40.645Z,52.67
2023-05-03T22:10:07.506Z,52.69
2023-05-03T22:12:33.980Z,52.72
2023-05-03T22:15:01.204Z,52.89
2023-05-03T22:17:28.765Z,53.08
2023-05-03T22:19:55.513Z,53.14
2023-05-03T22:22:21.692Z,53.24
2023-05-03T22:24:47.916Z,53.55
2023-05-03T22:27:14.816Z,53.68
2023-05-03T22:29:41.187Z,54.04
2023-05-03T22:40:56.772Z,54.95
2023-05-03T22:43:23.773Z,55.54
2023-05-03T22:45:51.161Z,55.62
2023-05-03T22:48:18.791Z,55.89
2023-05-03T22:50:45.853Z,56.09
2023-05-03T22:53:14.012Z,56.13
2023-05-03T22:55:41.523Z,56.25
2023-05-03T22:58:08.901Z,56.55
2023-05-03T23:00:36.579Z,56.83
2023-05-03T23:03:03.933Z,56.84
2023-05-03T23:05:31.025Z,57.04
2023-05-03T23:07:58.236Z,57.33
2023-05-03T23:10:25.192Z,57.39
2023-05-03T23:12:52.130Z,57.51
2023-05-03T23:15:18.959Z,57.73
2023-05-03T23:17:46.592Z,57.77
2023-05-03T23:20:13.767Z,57.82
2023-05-03T23:22:41.091Z,58.03
2023-05-03T23:25:09.813Z,58.70
2023-05-03T23:27:37.060Z,58.68
2023-05-03T23:30:04.888Z,58.99
2023-05-03T23:32:33.334Z,59.62
2023-05-03T23:35:00.646Z,59.94
2023-05-03T23:37:28.287Z,60.27
2023-05-03T23:39:55.292Z,60.80
2023-05-03T23:42:22.184Z,60.78
2023-05-03T23:44:55.273Z,60.57
2023-05-03T23:47:23.119Z,60.64
2023-05-03T23:49:50.119Z,60.67
2023-05-03T23:52:19.123Z,60.87
2023-05-03T23:54:46.372Z,60.95
2023-05-03T23:57:13.268Z,61.06
2023-05-03T23:59:40.213Z,61.08
